Etusivu
METAR-TAF:

METAR-TAF

Lentoasemat :

Saint-Exupéryn kansainvälinen lentoasema

Lyon / Saint Exupéry, Ranska

Leveyspiiri: 45-44N, Pituuspiiri: 005-05E, korkeus merenpinnasta: 248 m

Tämänhetkinen sää

Tämä raportti tehtiin 26 minuuttia sitten, kello 11.00 UTC
Tuuli 3 kn eri suunnista
Lämpötila 20°C
Kosteus 35%
Ilmanpaine 1027 hPa
Näkyvyys 10 km tai enemmän
ei pilviä alle 1500 m:ssä eikä cumulonimbus-pilviä

METAR: LFLL 071100Z AUTO VRB03KT CAVOK 20/04 Q1027 NOSIG

Aika: 13:26 (11:26 UTC)

Sääennuste

Tämä raportti tehtiin 6 tuntia ja 26 minuuttia sitten, kello 05.00 UTC
Ennuste voimassa 07. päivästä klo 06 UTC - 08. päivään klo 12 UTC
Tuuli 7 kn etelästä/kaakosta
Näkyvyys 10 km tai enemmän
ei pilviä alle 1500 m:ssä eikä cumulonimbus-pilviä
Ajoittain
07. päivästä klo 21 UTC - 08. päivään klo 01 UTC
Tuuli 12 kn etelästä

TAF: LFLL 070500Z 0706/0812 15007KT CAVOK TEMPO 0721/0801 19012KT

Säähavainnot ja -ennusteet yli 4000 lentoasemalta (METAR- ja TAF-raportit).

Käytössä olevat sääasemat on merkitty karttaan keltaisilla ja punaisilla pisteillä.

Aseta hiiri pisteen päälle nähdäksesi sääaseman nimen.

Klikkaa sitten nähdäksesi säähavainnot ja -ennusteet.

Kartan vaihtaminen: klikkaa mustalla rastilla varustettuja vihreitä pisteitä, niin voit zoomata sisään; viivalla varustettua vihreää pistettä, niin voit zoomata ulos tai vihreitä nuolia, niin pääset viereisille kartoille.


METAR-TAF: